createdAt,value
2023-11-07T00:01:29.080Z,10.70
2023-11-07T00:03:56.619Z,10.80
2023-11-07T00:06:23.876Z,11.30
2023-11-07T00:08:52.649Z,11.40
2023-11-07T00:11:20.516Z,9.60
2023-11-07T00:13:49.973Z,10.00
2023-11-07T00:16:17.113Z,12.30
2023-11-07T00:18:44.243Z,11.00
2023-11-07T00:21:11.275Z,10.30
2023-11-07T00:23:39.095Z,7.80
2023-11-07T00:26:06.692Z,10.00
2023-11-07T00:28:33.633Z,11.90
2023-11-07T00:31:00.822Z,8.30
2023-11-07T00:33:27.875Z,7.10
2023-11-07T00:35:54.936Z,11.20
2023-11-07T00:38:21.867Z,13.20
2023-11-07T00:40:50.270Z,9.70
2023-11-07T00:43:18.643Z,8.70
2023-11-07T00:45:45.720Z,8.30
2023-11-07T00:48:13.033Z,9.60
2023-11-07T00:50:40.369Z,7.80
2023-11-07T00:53:07.553Z,11.50
2023-11-07T00:55:34.533Z,7.70
2023-11-07T00:58:01.437Z,11.30
2023-11-07T01:00:29.380Z,7.90
2023-11-07T01:02:56.304Z,8.60
2023-11-07T01:05:23.719Z,8.30
2023-11-07T01:07:50.660Z,9.40
2023-11-07T01:10:19.113Z,7.40
2023-11-07T01:12:46.423Z,8.10
2023-11-07T01:15:13.560Z,7.40
2023-11-07T01:17:40.666Z,9.00
2023-11-07T01:20:08.549Z,7.30
2023-11-07T01:22:35.480Z,9.10
2023-11-07T01:25:02.410Z,8.50
2023-11-07T01:27:29.286Z,8.70
2023-11-07T01:29:56.202Z,9.00
2023-11-07T01:32:23.088Z,6.90
2023-11-07T01:34:49.939Z,8.80
2023-11-07T01:37:16.854Z,8.20
2023-11-07T01:39:43.721Z,10.10
2023-11-07T01:42:10.954Z,9.00
2023-11-07T01:44:49.989Z,8.70
2023-11-07T01:47:19.621Z,8.70
2023-11-07T01:49:47.672Z,6.90
2023-11-07T01:52:19.024Z,9.30
2023-11-07T01:54:52.764Z,8.10
2023-11-07T01:57:20.739Z,6.70
2023-11-07T01:59:49.595Z,4.90
2023-11-07T02:02:19.937Z,6.60
2023-11-07T02:04:48.608Z,6.30
2023-11-07T02:07:16.597Z,8.30
2023-11-07T02:09:44.174Z,6.70
2023-11-07T02:12:11.318Z,7.10
2023-11-07T02:14:41.422Z,5.80
2023-11-07T02:17:08.419Z,5.30
2023-11-07T02:19:35.802Z,8.00
2023-11-07T02:22:04.785Z,12.20
2023-11-07T02:24:31.897Z,8.30
2023-11-07T02:26:59.453Z,10.10
2023-11-07T02:29:26.514Z,7.10
2023-11-07T02:31:53.739Z,7.20
2023-11-07T02:34:20.990Z,7.70
2023-11-07T02:36:48.961Z,9.00
2023-11-07T02:39:16.949Z,11.50
2023-11-07T02:41:46.046Z,6.60
2023-11-07T02:44:13.296Z,6.20
2023-11-07T02:46:41.197Z,6.90
2023-11-07T02:49:08.784Z,6.10
2023-11-07T02:51:35.907Z,7.50
2023-11-07T02:54:03.010Z,7.30
2023-11-07T02:56:30.356Z,9.90
2023-11-07T02:58:58.026Z,7.30
2023-11-07T03:01:24.953Z,9.60
2023-11-07T03:03:52.637Z,8.90
2023-11-07T03:06:19.973Z,6.70
2023-11-07T03:08:47.005Z,8.60
2023-11-07T03:11:13.921Z,8.00
2023-11-07T03:13:40.923Z,8.70
2023-11-07T03:16:09.172Z,10.60
2023-11-07T03:18:36.415Z,9.20
2023-11-07T03:21:08.062Z,10.30
2023-11-07T03:23:35.452Z,9.10
2023-11-07T03:26:04.040Z,7.20
2023-11-07T03:28:31.104Z,10.40
2023-11-07T03:30:58.041Z,7.90
2023-11-07T03:33:25.347Z,10.40
2023-11-07T03:35:53.430Z,10.40
2023-11-07T03:38:21.207Z,10.30
2023-11-07T03:40:48.307Z,8.30
2023-11-07T03:43:15.259Z,11.20
2023-11-07T03:45:42.206Z,7.20
2023-11-07T03:48:09.368Z,9.00
2023-11-07T03:50:36.906Z,8.40
2023-11-07T03:53:03.984Z,8.10
2023-11-07T03:55:30.879Z,6.60
2023-11-07T03:57:57.761Z,7.90
2023-11-07T04:00:25.109Z,7.80
2023-11-07T04:02:52.562Z,6.30
2023-11-07T04:05:20.113Z,7.10
2023-11-07T04:07:47.427Z,7.70
2023-11-07T04:10:14.484Z,6.40
2023-11-07T04:12:41.511Z,8.20
2023-11-07T04:15:11.042Z,5.70
2023-11-07T04:17:38.490Z,6.50
2023-11-07T04:20:06.005Z,8.00
2023-11-07T04:22:33.083Z,6.40
2023-11-07T04:25:01.179Z,8.70
2023-11-07T04:27:28.211Z,8.30
2023-11-07T04:29:55.438Z,5.70
2023-11-07T04:32:23.031Z,8.10
2023-11-07T04:34:50.010Z,6.60
2023-11-07T04:37:17.146Z,6.00
2023-11-07T04:39:44.163Z,7.60
2023-11-07T04:42:11.715Z,10.30
2023-11-07T04:44:38.742Z,6.80
2023-11-07T04:47:06.990Z,8.30
2023-11-07T04:49:35.239Z,9.90
2023-11-07T04:52:03.721Z,7.30
2023-11-07T04:54:30.919Z,9.80
2023-11-07T04:56:58.975Z,7.90
2023-11-07T04:59:26.017Z,10.20
2023-11-07T05:01:54.307Z,9.60
2023-11-07T05:04:21.534Z,9.60
2023-11-07T05:06:49.143Z,8.30
2023-11-07T05:09:16.321Z,13.10
2023-11-07T05:11:44.464Z,7.70
2023-11-07T05:14:11.667Z,13.30
2023-11-07T05:16:40.015Z,12.10
2023-11-07T05:19:09.351Z,11.10
2023-11-07T05:21:37.722Z,12.60
2023-11-07T05:24:06.367Z,11.70
2023-11-07T05:26:33.272Z,11.90
2023-11-07T05:29:01.537Z,10.50
2023-11-07T05:31:28.542Z,8.40
2023-11-07T05:33:55.619Z,8.70
2023-11-07T05:36:22.681Z,7.00
2023-11-07T05:38:51.025Z,9.90
2023-11-07T05:41:19.784Z,7.70
2023-11-07T05:43:46.638Z,5.40
2023-11-07T05:46:13.675Z,5.80
2023-11-07T05:48:41.030Z,7.70
2023-11-07T05:51:08.743Z,8.20
2023-11-07T05:53:35.867Z,8.00
2023-11-07T05:56:03.134Z,17.50
2023-11-07T05:58:30.808Z,6.60
2023-11-07T06:00:58.690Z,7.70
2023-11-07T06:03:25.866Z,6.60
2023-11-07T06:05:53.263Z,5.30
2023-11-07T06:08:21.512Z,5.90
2023-11-07T06:10:49.094Z,5.60
2023-11-07T06:13:16.711Z,4.50
2023-11-07T06:15:43.601Z,5.60
2023-11-07T06:18:11.068Z,6.90
2023-11-07T06:20:38.085Z,6.70
2023-11-07T06:23:05.128Z,6.40
2023-11-07T06:25:32.408Z,5.30
2023-11-07T06:27:59.999Z,6.50
2023-11-07T06:30:31.151Z,6.80
2023-11-07T06:32:58.863Z,9.50
2023-11-07T06:35:26.302Z,12.10
2023-11-07T06:37:53.231Z,12.50
2023-11-07T06:40:21.591Z,8.20
2023-11-07T06:42:49.425Z,10.90
2023-11-07T06:45:16.657Z,9.60
2023-11-07T06:47:45.551Z,13.00
2023-11-07T06:50:14.805Z,8.80
2023-11-07T06:52:43.554Z,8.00
2023-11-07T06:55:13.816Z,13.90
2023-11-07T06:57:41.916Z,9.30
2023-11-07T07:00:11.173Z,8.50
2023-11-07T07:02:40.068Z,9.40
2023-11-07T07:05:12.187Z,7.20
2023-11-07T07:07:39.595Z,7.90
2023-11-07T07:10:07.050Z,11.00
2023-11-07T07:12:34.116Z,8.60
2023-11-07T07:15:00.968Z,7.40
2023-11-07T07:17:28.822Z,8.70
2023-11-07T07:19:56.688Z,5.20
2023-11-07T07:22:28.921Z,7.60
2023-11-07T07:24:56.849Z,8.00
2023-11-07T07:27:28.175Z,6.00
2023-11-07T07:29:55.432Z,7.70
2023-11-07T07:32:22.585Z,7.70
2023-11-07T07:34:52.714Z,9.60
2023-11-07T07:37:22.213Z,9.00
2023-11-07T07:39:49.086Z,9.30
2023-11-07T07:42:18.717Z,7.60
2023-11-07T07:44:46.136Z,7.60
2023-11-07T07:47:13.532Z,7.90
2023-11-07T07:49:41.800Z,7.00
2023-11-07T07:52:11.199Z,13.80
2023-11-07T07:57:10.184Z,17.40
2023-11-07T07:59:42.581Z,29.80
2023-11-07T08:02:10.104Z,27.40
2023-11-07T08:04:37.366Z,32.00
2023-11-07T08:07:06.428Z,20.10
2023-11-07T08:09:33.392Z,21.40
2023-11-07T08:12:01.902Z,13.10
2023-11-07T08:14:30.891Z,16.60
2023-11-07T08:16:58.124Z,7.90
2023-11-07T08:19:25.866Z,12.80
2023-11-07T08:21:52.995Z,14.40
2023-11-07T08:24:20.201Z,9.20
2023-11-07T08:26:48.525Z,8.60
2023-11-07T08:29:17.125Z,10.00
2023-11-07T08:31:44.145Z,4.90
2023-11-07T08:34:11.194Z,5.90
2023-11-07T08:36:42.141Z,8.20
2023-11-07T08:39:25.216Z,7.80
2023-11-07T08:41:52.273Z,7.70
2023-11-07T08:44:20.429Z,8.10
2023-11-07T08:46:47.365Z,8.70
2023-11-07T08:49:17.674Z,6.60
2023-11-07T08:51:51.546Z,8.20
2023-11-07T08:54:20.385Z,5.70
2023-11-07T08:56:51.615Z,6.00
2023-11-07T08:59:19.455Z,6.30
2023-11-07T09:01:48.530Z,4.20
2023-11-07T09:04:16.059Z,5.50
2023-11-07T09:06:42.956Z,6.50
2023-11-07T09:09:15.532Z,5.80
2023-11-07T09:11:43.226Z,3.80
2023-11-07T09:14:10.502Z,4.00
2023-11-07T09:16:37.423Z,3.60
2023-11-07T09:19:05.942Z,3.50
2023-11-07T09:21:33.421Z,4.50
2023-11-07T09:24:00.371Z,2.70
2023-11-07T09:26:27.215Z,2.90
2023-11-07T09:28:54.071Z,2.00
2023-11-07T09:31:20.999Z,3.30
2023-11-07T09:33:48.062Z,2.50
2023-11-07T09:36:16.646Z,1.90
2023-11-07T09:38:49.898Z,2.40
2023-11-07T09:41:19.877Z,2.50
2023-11-07T09:43:47.448Z,2.80
2023-11-07T09:46:15.188Z,4.10
2023-11-07T09:48:43.409Z,4.90
2023-11-07T09:51:12.009Z,2.60
2023-11-07T09:53:41.171Z,2.70
2023-11-07T09:56:12.300Z,2.90
2023-11-07T09:58:44.970Z,2.80
2023-11-07T10:01:12.281Z,7.50
2023-11-07T10:03:41.472Z,5.90
2023-11-07T10:06:08.879Z,3.80
2023-11-07T10:08:36.366Z,5.70
2023-11-07T10:11:12.445Z,2.30
2023-11-07T10:13:40.437Z,4.30
2023-11-07T10:18:49.169Z,4.50
2023-11-07T10:21:31.102Z,5.90
2023-11-07T10:23:58.642Z,2.30
2023-11-07T10:26:25.851Z,4.20
2023-11-07T10:29:19.116Z,2.10
2023-11-07T10:34:27.380Z,1.70
2023-11-07T10:36:55.475Z,2.70
2023-11-07T10:39:26.961Z,1.80
2023-11-07T10:41:56.454Z,2.90
2023-11-07T10:44:26.086Z,3.60
2023-11-07T10:46:54.948Z,1.60
2023-11-07T10:49:23.042Z,1.30
2023-11-07T10:51:53.071Z,3.00
2023-11-07T10:54:21.694Z,4.30
2023-11-07T10:56:51.773Z,2.60
2023-11-07T10:59:22.590Z,4.50
2023-11-07T11:01:51.708Z,2.00
2023-11-07T11:04:22.745Z,2.10
2023-11-07T11:06:53.844Z,2.10
2023-11-07T11:09:23.810Z,2.80
2023-11-07T11:11:53.227Z,1.70
2023-11-07T11:14:20.796Z,2.80
2023-11-07T11:16:51.632Z,3.20
2023-11-07T11:19:41.687Z,2.20
2023-11-07T11:22:10.029Z,4.10
2023-11-07T11:24:51.154Z,3.30
2023-11-07T11:27:24.793Z,1.80
2023-11-07T11:29:51.903Z,2.50
2023-11-07T11:32:29.281Z,4.60
2023-11-07T11:35:17.945Z,3.00
2023-11-07T11:38:12.256Z,1.80
2023-11-07T11:43:13.760Z,1.90
2023-11-07T11:45:46.745Z,4.50
2023-11-07T11:48:14.747Z,2.20
2023-11-07T11:50:41.978Z,3.30
2023-11-07T11:53:10.656Z,2.40
2023-11-07T11:56:00.474Z,3.30
2023-11-07T11:58:33.121Z,6.20
2023-11-07T12:01:01.985Z,2.70
2023-11-07T12:03:41.191Z,2.70
2023-11-07T12:06:08.369Z,2.00
2023-11-07T12:08:37.659Z,2.10
2023-11-07T12:11:06.173Z,1.70
2023-11-07T12:13:34.120Z,2.10
2023-11-07T12:16:17.764Z,1.60
2023-11-07T12:18:48.079Z,3.20
2023-11-07T12:21:26.977Z,3.30
2023-11-07T12:23:57.849Z,2.00
2023-11-07T12:26:39.500Z,2.50
2023-11-07T12:29:07.609Z,2.60
2023-11-07T12:31:35.465Z,2.40
2023-11-07T12:34:02.426Z,2.10
2023-11-07T12:36:30.958Z,3.90
2023-11-07T12:38:58.243Z,4.40
2023-11-07T12:41:25.458Z,3.60
2023-11-07T12:43:52.448Z,1.80
2023-11-07T12:46:21.566Z,2.10
2023-11-07T12:48:54.089Z,1.80
2023-11-07T12:51:22.292Z,1.40
2023-11-07T12:53:50.530Z,3.80
2023-11-07T12:56:20.073Z,1.70
2023-11-07T12:58:47.689Z,1.40
2023-11-07T13:01:16.722Z,3.30
2023-11-07T13:03:44.296Z,1.40
2023-11-07T13:06:14.896Z,7.20
2023-11-07T13:08:43.422Z,2.20
2023-11-07T13:11:14.514Z,2.20
2023-11-07T13:13:43.302Z,4.00
2023-11-07T13:16:10.586Z,3.80
2023-11-07T13:18:38.547Z,5.80
2023-11-07T13:21:06.832Z,3.70
2023-11-07T13:23:33.829Z,2.00
2023-11-07T13:26:00.834Z,3.60
2023-11-07T13:28:29.166Z,4.40
2023-11-07T13:30:56.817Z,3.20
2023-11-07T13:33:24.042Z,3.20
2023-11-07T13:35:51.254Z,2.10
2023-11-07T13:38:18.413Z,3.30
2023-11-07T13:40:46.697Z,2.60
2023-11-07T13:43:14.367Z,4.40
2023-11-07T13:45:41.478Z,1.80
2023-11-07T13:48:08.656Z,2.20
2023-11-07T13:50:35.622Z,2.30
2023-11-07T13:53:02.549Z,3.80
2023-11-07T13:55:30.419Z,3.60
2023-11-07T13:57:57.307Z,4.40
2023-11-07T14:00:24.991Z,10.90
2023-11-07T14:03:08.879Z,3.60
2023-11-07T14:05:35.906Z,4.90
2023-11-07T14:08:03.232Z,3.40
2023-11-07T14:10:32.774Z,2.90
2023-11-07T14:13:00.134Z,2.60
2023-11-07T14:15:34.626Z,2.60
2023-11-07T14:18:08.546Z,3.40
2023-11-07T14:20:40.796Z,3.60
2023-11-07T14:23:10.629Z,3.00
2023-11-07T14:25:38.164Z,3.30
2023-11-07T14:28:07.658Z,2.60
2023-11-07T14:30:39.964Z,4.80
2023-11-07T14:33:08.863Z,2.90
2023-11-07T14:35:36.205Z,3.00
2023-11-07T14:38:04.224Z,5.20
2023-11-07T14:40:32.277Z,2.10
2023-11-07T14:42:59.402Z,4.80
2023-11-07T14:45:26.665Z,4.30
2023-11-07T14:47:54.564Z,5.90
2023-11-07T14:50:22.053Z,2.30
2023-11-07T14:52:49.241Z,6.00
2023-11-07T14:55:17.593Z,3.60
2023-11-07T14:57:45.437Z,3.80
2023-11-07T15:00:28.662Z,3.50
2023-11-07T15:02:58.463Z,3.30
2023-11-07T15:05:27.231Z,4.40
2023-11-07T15:07:55.559Z,3.40
2023-11-07T15:10:25.255Z,5.40
2023-11-07T15:12:53.493Z,67.10
2023-11-07T15:15:21.032Z,48.40
2023-11-07T15:17:48.454Z,33.10
2023-11-07T15:20:16.283Z,14.00
2023-11-07T15:22:44.107Z,9.20
2023-11-07T15:25:14.484Z,7.60
2023-11-07T15:27:43.523Z,6.40
2023-11-07T15:30:12.484Z,3.90
2023-11-07T15:32:40.382Z,6.80
2023-11-07T15:35:12.010Z,3.40
2023-11-07T15:37:39.327Z,7.40
2023-11-07T15:40:08.661Z,6.40
2023-11-07T15:42:36.549Z,5.80
2023-11-07T15:45:03.675Z,8.00
2023-11-07T15:47:30.629Z,4.10
2023-11-07T15:49:57.658Z,6.00
2023-11-07T15:52:25.004Z,7.20
2023-11-07T15:54:51.876Z,4.30
2023-11-07T15:57:18.829Z,4.90
2023-11-07T15:59:45.725Z,3.50
2023-11-07T16:02:12.649Z,6.00
2023-11-07T16:04:39.562Z,4.00
2023-11-07T16:07:07.859Z,4.90
2023-11-07T16:09:35.327Z,4.80
2023-11-07T16:12:02.196Z,12.20
2023-11-07T16:14:29.201Z,4.20
2023-11-07T16:16:56.107Z,5.60
2023-11-07T16:19:23.036Z,6.90
2023-11-07T16:21:50.582Z,5.90
2023-11-07T16:24:17.555Z,13.20
2023-11-07T16:26:44.910Z,10.10
2023-11-07T16:29:12.118Z,5.00
2023-11-07T16:31:39.427Z,4.90
2023-11-07T16:34:06.454Z,9.90
2023-11-07T16:36:33.517Z,4.40
2023-11-07T16:39:00.423Z,4.90
2023-11-07T16:41:27.385Z,10.60
2023-11-07T16:43:54.454Z,13.40
2023-11-07T16:46:21.335Z,8.00
2023-11-07T16:48:48.350Z,16.30
2023-11-07T16:51:16.434Z,12.80
2023-11-07T16:53:44.112Z,51.80
2023-11-07T16:56:14.443Z,56.30
2023-11-07T16:58:41.303Z,35.30
2023-11-07T17:01:08.727Z,42.50
2023-11-07T17:03:35.660Z,29.90
2023-11-07T17:06:02.596Z,24.30
2023-11-07T17:08:29.674Z,17.80
2023-11-07T17:10:56.694Z,13.40
2023-11-07T17:13:24.204Z,11.30
2023-11-07T17:15:53.163Z,11.00
2023-11-07T17:18:20.699Z,14.20
2023-11-07T17:20:47.688Z,13.80
2023-11-07T17:23:15.888Z,11.80
2023-11-07T17:25:43.031Z,10.40
2023-11-07T17:28:10.890Z,9.40
2023-11-07T17:30:37.968Z,8.90
2023-11-07T17:33:05.768Z,9.40
2023-11-07T17:35:32.624Z,8.70
2023-11-07T17:37:59.457Z,9.20
2023-11-07T17:40:26.899Z,11.80
2023-11-07T17:42:53.897Z,7.70
2023-11-07T17:45:20.805Z,6.70
2023-11-07T17:47:47.725Z,19.00
2023-11-07T17:50:14.859Z,29.80
2023-11-07T17:52:43.403Z,30.40
2023-11-07T17:55:10.379Z,45.30
2023-11-07T17:57:37.342Z,60.60
2023-11-07T18:00:05.169Z,60.10
2023-11-07T18:02:39.679Z,65.50
2023-11-07T18:05:06.879Z,111.70
2023-11-07T18:07:34.646Z,96.70
2023-11-07T18:10:02.049Z,63.10
2023-11-07T18:12:29.096Z,46.10
2023-11-07T18:14:56.429Z,26.60
2023-11-07T18:17:23.358Z,26.00
2023-11-07T18:19:50.529Z,27.60
2023-11-07T18:22:17.511Z,19.70
2023-11-07T18:24:45.001Z,11.90
2023-11-07T18:27:11.909Z,26.20
2023-11-07T18:29:38.827Z,19.60
2023-11-07T18:32:08.360Z,19.20
2023-11-07T18:34:38.367Z,18.40
2023-11-07T18:37:06.803Z,18.10
2023-11-07T18:39:37.270Z,20.30
2023-11-07T18:42:04.940Z,23.50
2023-11-07T18:44:35.944Z,131.10
2023-11-07T18:47:03.569Z,108.90
2023-11-07T18:49:30.902Z,106.40
2023-11-07T18:51:58.624Z,80.50
2023-11-07T18:54:28.454Z,98.10
2023-11-07T18:56:59.305Z,178.40
2023-11-07T18:59:34.490Z,89.30
2023-11-07T19:02:07.813Z,87.70
2023-11-07T19:04:37.972Z,86.70
2023-11-07T19:07:06.504Z,104.30
2023-11-07T19:09:33.931Z,87.40
2023-11-07T19:12:04.177Z,97.70
2023-11-07T19:14:31.633Z,73.60
2023-11-07T19:16:59.023Z,68.70
2023-11-07T19:19:26.006Z,50.80
2023-11-07T19:21:53.042Z,38.30
2023-11-07T19:24:22.169Z,34.10
2023-11-07T19:26:50.359Z,39.70
2023-11-07T19:29:18.070Z,37.60
2023-11-07T19:31:48.126Z,37.40
2023-11-07T19:34:16.133Z,32.60
2023-11-07T19:36:44.464Z,29.80
2023-11-07T19:39:11.574Z,28.80
2023-11-07T19:41:38.930Z,34.50
2023-11-07T19:44:06.575Z,32.40
2023-11-07T19:46:35.173Z,34.50
2023-11-07T19:49:02.496Z,116.20
2023-11-07T19:51:30.582Z,99.70
2023-11-07T19:53:57.426Z,339.30
2023-11-07T19:56:24.945Z,267.70
2023-11-07T19:58:59.710Z,218.30
2023-11-07T20:01:27.622Z,371.00
2023-11-07T20:03:55.428Z,148.00
2023-11-07T20:06:23.895Z,114.80
2023-11-07T20:08:51.443Z,87.10
2023-11-07T20:11:19.039Z,62.20
2023-11-07T20:13:46.334Z,53.00
2023-11-07T20:16:14.579Z,40.50
2023-11-07T20:18:42.131Z,42.80
2023-11-07T20:21:09.427Z,46.40
2023-11-07T20:23:37.928Z,39.30
2023-11-07T20:26:05.849Z,88.50
2023-11-07T20:28:33.421Z,54.40
2023-11-07T20:31:00.435Z,45.70
2023-11-07T20:33:37.217Z,44.60
2023-11-07T20:36:16.355Z,50.60
2023-11-07T20:38:43.341Z,78.70
2023-11-07T20:41:11.373Z,28.30
2023-11-07T20:43:38.734Z,25.70
2023-11-07T20:46:09.314Z,110.20
2023-11-07T20:48:40.156Z,57.80
2023-11-07T20:51:07.201Z,148.60
2023-11-07T20:53:35.598Z,248.50
2023-11-07T20:56:03.401Z,85.80
2023-11-07T20:58:30.446Z,24.00
2023-11-07T21:00:58.703Z,85.30
2023-11-07T21:03:26.249Z,22.90
2023-11-07T21:05:53.219Z,38.40
2023-11-07T21:08:20.154Z,23.10
2023-11-07T21:10:47.077Z,26.10
2023-11-07T21:13:14.099Z,67.30
2023-11-07T21:15:41.090Z,57.50
2023-11-07T21:18:08.925Z,32.10
2023-11-07T21:20:36.021Z,101.80
2023-11-07T21:23:03.155Z,121.80
2023-11-07T21:25:30.548Z,36.80
2023-11-07T21:27:59.403Z,75.20
2023-11-07T21:30:27.546Z,52.60
2023-11-07T21:32:54.809Z,29.60
2023-11-07T21:35:23.226Z,28.60
2023-11-07T21:37:51.141Z,32.70
2023-11-07T21:40:18.223Z,48.90
2023-11-07T21:42:45.297Z,21.90
2023-11-07T21:45:12.318Z,21.80
2023-11-07T21:47:39.343Z,27.60
2023-11-07T21:50:06.909Z,19.30
2023-11-07T21:52:33.768Z,21.70
2023-11-07T21:55:00.808Z,38.80
2023-11-07T21:57:27.802Z,52.00
2023-11-07T21:59:54.703Z,33.00
2023-11-07T22:02:21.788Z,30.40
2023-11-07T22:04:48.676Z,36.60
2023-11-07T22:07:15.631Z,31.40
2023-11-07T22:09:42.545Z,30.40
2023-11-07T22:12:09.654Z,28.90
2023-11-07T22:14:36.634Z,34.00
2023-11-07T22:17:03.941Z,49.00
2023-11-07T22:19:31.133Z,33.70
2023-11-07T22:21:58.677Z,42.00
2023-11-07T22:24:26.705Z,37.70
2023-11-07T22:26:55.442Z,27.20
2023-11-07T22:29:22.447Z,26.90
2023-11-07T22:31:49.353Z,46.40
2023-11-07T22:34:16.278Z,31.10
2023-11-07T22:36:43.244Z,28.70
2023-11-07T22:39:10.834Z,25.60
2023-11-07T22:41:37.795Z,25.90
2023-11-07T22:44:04.878Z,27.30
2023-11-07T22:46:31.797Z,26.70
2023-11-07T22:48:59.212Z,21.00
2023-11-07T22:51:26.396Z,23.60
2023-11-07T22:53:53.320Z,23.90
2023-11-07T22:56:20.620Z,22.00
2023-11-07T22:58:47.550Z,19.90
2023-11-07T23:01:14.861Z,20.50
2023-11-07T23:03:42.432Z,21.10
2023-11-07T23:06:09.404Z,22.10
2023-11-07T23:08:36.335Z,21.30
2023-11-07T23:11:03.557Z,18.50
2023-11-07T23:13:30.844Z,17.90
2023-11-07T23:15:58.649Z,17.50
2023-11-07T23:18:25.631Z,18.00
2023-11-07T23:20:52.533Z,18.60
2023-11-07T23:23:19.650Z,18.50
2023-11-07T23:25:47.185Z,17.60
2023-11-07T23:28:14.594Z,19.10
2023-11-07T23:30:41.808Z,18.40
2023-11-07T23:33:08.929Z,19.10
2023-11-07T23:35:35.866Z,20.00
2023-11-07T23:38:02.769Z,19.60
2023-11-07T23:40:30.326Z,20.30
2023-11-07T23:42:58.791Z,23.60
2023-11-07T23:45:25.803Z,22.10
2023-11-07T23:47:52.760Z,18.60
2023-11-07T23:50:20.593Z,21.20
2023-11-07T23:52:48.157Z,21.80
2023-11-07T23:55:15.046Z,22.20
2023-11-07T23:57:42.302Z,24.50
